Terminal Aerodrome Forecast
Issued by NWS Charleston, WV

Current Version | Previous Version | Text Only | Print | Product List | Glossary Off
Versions: 1 2 3 4 5 6 7 8 9 10 11 12 13 14 15 16 17 18 19 20 21 22 23 24

000
FTUS41 KRLX 201120
TAFPKB
TAF
KPKB 201120Z 2012/2112 VRB03KT P6SM SCT130
      TEMPO 2012/2013 5SM BR
     FM201400 19004KT P6SM BKN120
     FM202300 19005KT 6SM -SHRA OVC040
     FM210200 18005KT 4SM -SHRA OVC030
     FM210400 VRB03KT 3SM SHRA OVC015
     FM210600 VRB04KT 3SM -SHRA OVC005=

USA.gov is the U.S. government's official web portal to all federal, state and local government web resources and services.